sensor_id;sensor_type;location;lat;lon;timestamp;pressure;altitude;pressure_sealevel;temperature;humidity
80382;BME280;69692;55.820;37.490;2024-03-08T00:02:17;99896.16;;;-2.95;66.23
80382;BME280;69692;55.820;37.490;2024-03-08T00:04:42;99896.44;;;-3.08;66.67
80382;BME280;69692;55.820;37.490;2024-03-08T00:07:10;99893.50;;;-3.14;67.33
80382;BME280;69692;55.820;37.490;2024-03-08T00:09:36;99883.94;;;-3.25;67.78
80382;BME280;69692;55.820;37.490;2024-03-08T00:12:02;99883.66;;;-3.22;67.49
80382;BME280;69692;55.820;37.490;2024-03-08T00:14:27;99878.97;;;-3.18;66.76
80382;BME280;69692;55.820;37.490;2024-03-08T00:16:53;99888.38;;;-3.16;67.07
80382;BME280;69692;55.820;37.490;2024-03-08T00:19:19;99874.81;;;-3.21;67.00
80382;BME280;69692;55.820;37.490;2024-03-08T00:21:45;99867.31;;;-3.35;67.62
80382;BME280;69692;55.820;37.490;2024-03-08T00:24:11;99857.34;;;-3.41;67.68
80382;BME280;69692;55.820;37.490;2024-03-08T00:26:37;99858.41;;;-3.44;67.75
80382;BME280;69692;55.820;37.490;2024-03-08T00:29:03;99848.22;;;-3.37;67.76
80382;BME280;69692;55.820;37.490;2024-03-08T00:31:29;99852.19;;;-3.43;67.54
80382;BME280;69692;55.820;37.490;2024-03-08T00:33:56;99852.09;;;-3.41;67.72
80382;BME280;69692;55.820;37.490;2024-03-08T00:36:23;99859.00;;;-3.40;67.83
80382;BME280;69692;55.820;37.490;2024-03-08T00:38:49;99847.66;;;-3.41;68.14
80382;BME280;69692;55.820;37.490;2024-03-08T00:41:14;99844.19;;;-3.41;68.28
80382;BME280;69692;55.820;37.490;2024-03-08T00:43:41;99836.69;;;-3.46;68.22
80382;BME280;69692;55.820;37.490;2024-03-08T00:46:06;99844.59;;;-3.36;67.44
80382;BME280;69692;55.820;37.490;2024-03-08T00:48:33;99846.69;;;-3.30;66.92
80382;BME280;69692;55.820;37.490;2024-03-08T00:50:59;99834.66;;;-3.23;67.48
80382;BME280;69692;55.820;37.490;2024-03-08T00:53:25;99826.47;;;-3.30;67.49
80382;BME280;69692;55.820;37.490;2024-03-08T00:55:50;99829.09;;;-3.39;67.49
80382;BME280;69692;55.820;37.490;2024-03-08T00:58:16;99820.38;;;-3.49;68.63
80382;BME280;69692;55.820;37.490;2024-03-08T01:00:42;99812.34;;;-3.38;67.68
80382;BME280;69692;55.820;37.490;2024-03-08T01:03:08;99802.81;;;-3.39;67.96
80382;BME280;69692;55.820;37.490;2024-03-08T01:05:34;99806.09;;;-3.47;68.05
80382;BME280;69692;55.820;37.490;2024-03-08T01:08:00;99801.69;;;-3.37;68.03
80382;BME280;69692;55.820;37.490;2024-03-08T01:10:28;99804.59;;;-3.30;67.54
80382;BME280;69692;55.820;37.490;2024-03-08T01:12:54;99795.31;;;-3.34;67.59
80382;BME280;69692;55.820;37.490;2024-03-08T01:15:23;99806.69;;;-3.24;67.33
80382;BME280;69692;55.820;37.490;2024-03-08T01:17:49;99805.84;;;-3.24;67.29
80382;BME280;69692;55.820;37.490;2024-03-08T01:20:15;99806.81;;;-3.16;66.71
80382;BME280;69692;55.820;37.490;2024-03-08T01:22:41;99799.59;;;-3.14;67.15
80382;BME280;69692;55.820;37.490;2024-03-08T01:25:07;99797.00;;;-3.23;67.38
80382;BME280;69692;55.820;37.490;2024-03-08T01:27:34;99793.25;;;-3.31;66.84
80382;BME280;69692;55.820;37.490;2024-03-08T01:30:01;99800.31;;;-3.31;67.33
80382;BME280;69692;55.820;37.490;2024-03-08T01:32:28;99797.28;;;-3.26;67.83
80382;BME280;69692;55.820;37.490;2024-03-08T01:34:53;99797.13;;;-3.15;67.41
80382;BME280;69692;55.820;37.490;2024-03-08T01:37:19;99804.75;;;-3.22;67.29
80382;BME280;69692;55.820;37.490;2024-03-08T01:39:45;99794.06;;;-3.30;67.18
80382;BME280;69692;55.820;37.490;2024-03-08T01:42:11;99797.13;;;-3.35;67.86
80382;BME280;69692;55.820;37.490;2024-03-08T01:44:39;99793.53;;;-3.34;68.14
80382;BME280;69692;55.820;37.490;2024-03-08T01:47:05;99791.56;;;-3.32;68.13
80382;BME280;69692;55.820;37.490;2024-03-08T01:49:31;99792.16;;;-3.38;68.00
80382;BME280;69692;55.820;37.490;2024-03-08T01:51:57;99804.31;;;-3.37;67.67
80382;BME280;69692;55.820;37.490;2024-03-08T01:54:23;99795.16;;;-3.42;67.96
80382;BME280;69692;55.820;37.490;2024-03-08T01:56:50;99792.13;;;-3.67;68.60
80382;BME280;69692;55.820;37.490;2024-03-08T01:59:16;99793.88;;;-3.77;69.00
80382;BME280;69692;55.820;37.490;2024-03-08T02:01:43;99804.38;;;-3.86;69.36
80382;BME280;69692;55.820;37.490;2024-03-08T02:04:09;99790.78;;;-4.01;70.39
80382;BME280;69692;55.820;37.490;2024-03-08T02:06:35;99790.91;;;-4.12;70.36
80382;BME280;69692;55.820;37.490;2024-03-08T02:09:03;99785.63;;;-4.12;70.49
80382;BME280;69692;55.820;37.490;2024-03-08T02:11:34;99795.69;;;-4.17;70.86
80382;BME280;69692;55.820;37.490;2024-03-08T02:14:00;99785.78;;;-4.14;71.12
80382;BME280;69692;55.820;37.490;2024-03-08T02:16:26;99796.66;;;-4.18;71.04
80382;BME280;69692;55.820;37.490;2024-03-08T02:18:53;99793.59;;;-4.24;70.81
80382;BME280;69692;55.820;37.490;2024-03-08T02:21:18;99790.72;;;-4.21;71.18
80382;BME280;69692;55.820;37.490;2024-03-08T02:23:44;99799.13;;;-4.27;71.24
80382;BME280;69692;55.820;37.490;2024-03-08T02:26:10;99797.63;;;-4.20;70.77
80382;BME280;69692;55.820;37.490;2024-03-08T02:28:37;99790.16;;;-4.24;70.75
80382;BME280;69692;55.820;37.490;2024-03-08T02:31:05;99788.50;;;-4.25;71.54
80382;BME280;69692;55.820;37.490;2024-03-08T02:33:34;99789.59;;;-4.28;71.53
80382;BME280;69692;55.820;37.490;2024-03-08T02:35:59;99782.34;;;-4.35;71.60
80382;BME280;69692;55.820;37.490;2024-03-08T02:38:25;99786.78;;;-4.36;72.26
80382;BME280;69692;55.820;37.490;2024-03-08T02:40:52;99782.63;;;-4.38;72.10
80382;BME280;69692;55.820;37.490;2024-03-08T02:43:19;99781.50;;;-4.45;72.11
80382;BME280;69692;55.820;37.490;2024-03-08T02:45:46;99779.09;;;-4.58;73.16
80382;BME280;69692;55.820;37.490;2024-03-08T02:48:14;99774.97;;;-4.51;72.68
80382;BME280;69692;55.820;37.490;2024-03-08T02:50:40;99781.94;;;-4.61;73.03
80382;BME280;69692;55.820;37.490;2024-03-08T02:53:08;99770.63;;;-4.62;72.79
80382;BME280;69692;55.820;37.490;2024-03-08T02:55:36;99767.09;;;-4.51;73.18
80382;BME280;69692;55.820;37.490;2024-03-08T02:58:02;99768.59;;;-4.58;73.02
80382;BME280;69692;55.820;37.490;2024-03-08T03:00:34;99761.91;;;-4.32;72.32
80382;BME280;69692;55.820;37.490;2024-03-08T03:03:00;99764.53;;;-4.32;72.00
80382;BME280;69692;55.820;37.490;2024-03-08T03:05:29;99758.56;;;-4.43;71.85
80382;BME280;69692;55.820;37.490;2024-03-08T03:07:56;99760.78;;;-4.39;72.52
80382;BME280;69692;55.820;37.490;2024-03-08T03:10:22;99752.22;;;-4.41;72.26
80382;BME280;69692;55.820;37.490;2024-03-08T03:12:48;99753.97;;;-4.51;72.17
80382;BME280;69692;55.820;37.490;2024-03-08T03:15:14;99746.34;;;-4.54;72.98
80382;BME280;69692;55.820;37.490;2024-03-08T03:17:48;99744.28;;;-4.51;73.33
80382;BME280;69692;55.820;37.490;2024-03-08T03:20:17;99746.16;;;-4.62;73.47
80382;BME280;69692;55.820;37.490;2024-03-08T03:22:58;99736.00;;;-4.56;74.34
80382;BME280;69692;55.820;37.490;2024-03-08T03:25:26;99730.56;;;-4.64;73.87
80382;BME280;69692;55.820;37.490;2024-03-08T03:27:58;99723.34;;;-4.71;74.26
80382;BME280;69692;55.820;37.490;2024-03-08T03:30:24;99731.25;;;-4.62;74.56
80382;BME280;69692;55.820;37.490;2024-03-08T03:32:53;99717.34;;;-4.53;74.47
80382;BME280;69692;55.820;37.490;2024-03-08T03:35:21;99731.63;;;-4.76;75.67
80382;BME280;69692;55.820;37.490;2024-03-08T03:37:48;99728.16;;;-4.76;75.69
80382;BME280;69692;55.820;37.490;2024-03-08T03:40:28;99725.50;;;-4.86;75.59
80382;BME280;69692;55.820;37.490;2024-03-08T03:42:55;99728.38;;;-4.89;76.59
80382;BME280;69692;55.820;37.490;2024-03-08T03:45:22;99726.88;;;-4.82;76.46
80382;BME280;69692;55.820;37.490;2024-03-08T03:47:48;99729.66;;;-4.84;76.82
80382;BME280;69692;55.820;37.490;2024-03-08T03:50:14;99720.72;;;-4.71;76.64
80382;BME280;69692;55.820;37.490;2024-03-08T03:52:40;99729.44;;;-4.71;75.74
80382;BME280;69692;55.820;37.490;2024-03-08T03:55:08;99723.63;;;-4.74;76.05
80382;BME280;69692;55.820;37.490;2024-03-08T03:57:34;99719.53;;;-4.88;77.07
80382;BME280;69692;55.820;37.490;2024-03-08T04:00:00;99721.44;;;-4.69;76.63
80382;BME280;69692;55.820;37.490;2024-03-08T04:02:39;99720.06;;;-4.64;76.45
80382;BME280;69692;55.820;37.490;2024-03-08T04:05:07;99721.72;;;-4.63;76.53
80382;BME280;69692;55.820;37.490;2024-03-08T04:07:33;99726.13;;;-4.63;76.12
80382;BME280;69692;55.820;37.490;2024-03-08T04:10:02;99708.91;;;-4.56;76.68
80382;BME280;69692;55.820;37.490;2024-03-08T04:12:30;99707.56;;;-4.81;77.11
80382;BME280;69692;55.820;37.490;2024-03-08T04:14:56;99708.00;;;-4.76;77.22
80382;BME280;69692;55.820;37.490;2024-03-08T04:17:22;99699.69;;;-4.81;77.52
80382;BME280;69692;55.820;37.490;2024-03-08T04:19:50;99708.72;;;-4.95;78.02
80382;BME280;69692;55.820;37.490;2024-03-08T04:22:16;99711.41;;;-5.06;78.88
80382;BME280;69692;55.820;37.490;2024-03-08T04:24:46;99715.25;;;-4.89;78.84
80382;BME280;69692;55.820;37.490;2024-03-08T04:27:13;99702.88;;;-4.77;78.05
80382;BME280;69692;55.820;37.490;2024-03-08T04:29:40;99709.69;;;-4.65;78.01
80382;BME280;69692;55.820;37.490;2024-03-08T04:32:07;99704.78;;;-4.80;78.30
80382;BME280;69692;55.820;37.490;2024-03-08T04:34:34;99702.28;;;-4.91;79.23
80382;BME280;69692;55.820;37.490;2024-03-08T04:37:03;99709.41;;;-4.93;80.05
80382;BME280;69692;55.820;37.490;2024-03-08T04:39:32;99707.06;;;-4.96;80.33
80382;BME280;69692;55.820;37.490;2024-03-08T04:42:01;99699.13;;;-4.85;80.43
80382;BME280;69692;55.820;37.490;2024-03-08T04:44:30;99698.72;;;-4.80;80.23
80382;BME280;69692;55.820;37.490;2024-03-08T04:46:56;99700.09;;;-4.86;80.42
80382;BME280;69692;55.820;37.490;2024-03-08T04:49:22;99693.75;;;-4.83;80.60
80382;BME280;69692;55.820;37.490;2024-03-08T04:51:48;99688.91;;;-4.78;80.45
80382;BME280;69692;55.820;37.490;2024-03-08T04:54:14;99676.97;;;-4.61;79.39
80382;BME280;69692;55.820;37.490;2024-03-08T04:56:40;99684.59;;;-4.58;79.37
80382;BME280;69692;55.820;37.490;2024-03-08T04:59:06;99677.41;;;-4.46;79.08
80382;BME280;69692;55.820;37.490;2024-03-08T05:01:34;99673.13;;;-4.47;79.46
80382;BME280;69692;55.820;37.490;2024-03-08T05:04:04;99674.38;;;-4.52;79.14
80382;BME280;69692;55.820;37.490;2024-03-08T05:06:31;99679.50;;;-4.50;79.56
80382;BME280;69692;55.820;37.490;2024-03-08T05:08:57;99672.84;;;-4.54;80.26
80382;BME280;69692;55.820;37.490;2024-03-08T05:11:23;99662.34;;;-4.54;79.92
80382;BME280;69692;55.820;37.490;2024-03-08T05:13:49;99664.19;;;-4.45;79.86
80382;BME280;69692;55.820;37.490;2024-03-08T05:16:15;99661.09;;;-4.50;80.19
80382;BME280;69692;55.820;37.490;2024-03-08T05:18:41;99663.97;;;-4.63;80.47
80382;BME280;69692;55.820;37.490;2024-03-08T05:21:08;99660.41;;;-4.52;80.77
80382;BME280;69692;55.820;37.490;2024-03-08T05:23:35;99655.75;;;-4.39;79.87
80382;BME280;69692;55.820;37.490;2024-03-08T05:26:01;99662.25;;;-4.43;80.01
80382;BME280;69692;55.820;37.490;2024-03-08T05:28:27;99648.44;;;-4.35;80.13
80382;BME280;69692;55.820;37.490;2024-03-08T05:30:53;99652.16;;;-4.38;79.73
80382;BME280;69692;55.820;37.490;2024-03-08T05:33:22;99655.19;;;-4.42;80.11
80382;BME280;69692;55.820;37.490;2024-03-08T05:35:49;99657.59;;;-4.30;80.03
80382;BME280;69692;55.820;37.490;2024-03-08T05:38:15;99652.75;;;-4.25;79.95
80382;BME280;69692;55.820;37.490;2024-03-08T05:40:41;99651.81;;;-4.14;79.78
80382;BME280;69692;55.820;37.490;2024-03-08T05:43:09;99651.22;;;-4.17;79.64
80382;BME280;69692;55.820;37.490;2024-03-08T05:45:35;99650.13;;;-4.25;79.34
80382;BME280;69692;55.820;37.490;2024-03-08T05:48:01;99660.22;;;-4.10;79.18
80382;BME280;69692;55.820;37.490;2024-03-08T05:50:27;99653.75;;;-3.97;78.98
80382;BME280;69692;55.820;37.490;2024-03-08T05:52:53;99654.16;;;-4.01;78.38
80382;BME280;69692;55.820;37.490;2024-03-08T05:55:19;99657.03;;;-4.04;78.42
80382;BME280;69692;55.820;37.490;2024-03-08T05:57:44;99655.94;;;-3.92;78.03
80382;BME280;69692;55.820;37.490;2024-03-08T06:00:11;99650.16;;;-3.96;78.24
80382;BME280;69692;55.820;37.490;2024-03-08T06:02:41;99645.84;;;-3.87;78.13
80382;BME280;69692;55.820;37.490;2024-03-08T06:05:10;99646.41;;;-3.93;77.22
80382;BME280;69692;55.820;37.490;2024-03-08T06:07:37;99656.91;;;-3.93;77.46
80382;BME280;69692;55.820;37.490;2024-03-08T06:10:10;99653.47;;;-3.65;77.67
80382;BME280;69692;55.820;37.490;2024-03-08T06:12:38;99650.53;;;-3.62;76.98
80382;BME280;69692;55.820;37.490;2024-03-08T06:15:09;99650.97;;;-3.66;76.70
80382;BME280;69692;55.820;37.490;2024-03-08T06:17:36;99659.53;;;-3.74;76.71
80382;BME280;69692;55.820;37.490;2024-03-08T06:20:03;99651.81;;;-3.85;76.82
80382;BME280;69692;55.820;37.490;2024-03-08T06:22:40;99652.91;;;-3.78;77.04
80382;BME280;69692;55.820;37.490;2024-03-08T06:25:11;99650.53;;;-3.62;76.89
80382;BME280;69692;55.820;37.490;2024-03-08T06:27:40;99655.41;;;-3.57;76.73
80382;BME280;69692;55.820;37.490;2024-03-08T06:30:09;99645.72;;;-3.56;76.88
80382;BME280;69692;55.820;37.490;2024-03-08T06:32:36;99648.06;;;-3.53;76.32
80382;BME280;69692;55.820;37.490;2024-03-08T06:35:06;99648.84;;;-3.43;76.59
80382;BME280;69692;55.820;37.490;2024-03-08T06:37:33;99648.72;;;-3.32;75.07
80382;BME280;69692;55.820;37.490;2024-03-08T06:40:00;99642.06;;;-3.26;74.98
80382;BME280;69692;55.820;37.490;2024-03-08T06:42:27;99631.31;;;-3.06;74.37
80382;BME280;69692;55.820;37.490;2024-03-08T06:44:54;99641.84;;;-3.06;74.96
80382;BME280;69692;55.820;37.490;2024-03-08T06:47:22;99628.94;;;-2.99;74.08
80382;BME280;69692;55.820;37.490;2024-03-08T06:49:52;99634.78;;;-2.95;73.89
80382;BME280;69692;55.820;37.490;2024-03-08T06:52:18;99632.91;;;-2.85;73.80
80382;BME280;69692;55.820;37.490;2024-03-08T06:54:44;99632.03;;;-2.76;73.69
80382;BME280;69692;55.820;37.490;2024-03-08T06:57:10;99626.91;;;-3.05;74.44
80382;BME280;69692;55.820;37.490;2024-03-08T06:59:36;99633.13;;;-2.96;74.53
80382;BME280;69692;55.820;37.490;2024-03-08T07:02:02;99629.22;;;-2.92;74.37
80382;BME280;69692;55.820;37.490;2024-03-08T07:04:30;99632.38;;;-2.89;74.04
80382;BME280;69692;55.820;37.490;2024-03-08T07:06:57;99637.34;;;-2.86;74.22
80382;BME280;69692;55.820;37.490;2024-03-08T07:09:24;99632.38;;;-2.61;73.65
80382;BME280;69692;55.820;37.490;2024-03-08T07:11:51;99635.81;;;-2.51;72.51
80382;BME280;69692;55.820;37.490;2024-03-08T07:14:41;99637.03;;;-2.28;72.15
80382;BME280;69692;55.820;37.490;2024-03-08T07:17:07;99636.81;;;-2.34;71.51
80382;BME280;69692;55.820;37.490;2024-03-08T07:19:37;99635.91;;;-2.25;71.69
80382;BME280;69692;55.820;37.490;2024-03-08T07:22:04;99632.59;;;-2.27;72.40
80382;BME280;69692;55.820;37.490;2024-03-08T07:24:35;99637.28;;;-2.21;72.26
80382;BME280;69692;55.820;37.490;2024-03-08T07:27:17;99633.91;;;-2.14;71.64
80382;BME280;69692;55.820;37.490;2024-03-08T07:29:43;99636.31;;;-1.85;71.35
80382;BME280;69692;55.820;37.490;2024-03-08T07:32:09;99641.88;;;-1.70;70.26
80382;BME280;69692;55.820;37.490;2024-03-08T07:34:44;99648.13;;;-1.53;70.19
80382;BME280;69692;55.820;37.490;2024-03-08T07:37:10;99636.34;;;-1.41;69.44
80382;BME280;69692;55.820;37.490;2024-03-08T07:42:21;99632.97;;;-0.99;68.22
80382;BME280;69692;55.820;37.490;2024-03-08T07:44:48;99631.09;;;-0.81;67.48
80382;BME280;69692;55.820;37.490;2024-03-08T07:47:15;99634.78;;;-0.74;67.30
80382;BME280;69692;55.820;37.490;2024-03-08T07:49:43;99631.53;;;-0.59;66.84
80382;BME280;69692;55.820;37.490;2024-03-08T07:52:09;99626.25;;;-0.51;66.82
80382;BME280;69692;55.820;37.490;2024-03-08T07:54:41;99627.25;;;-0.52;67.07
80382;BME280;69692;55.820;37.490;2024-03-08T07:57:07;99618.97;;;-0.57;66.43
80382;BME280;69692;55.820;37.490;2024-03-08T07:59:33;99618.94;;;-1.00;68.00
80382;BME280;69692;55.820;37.490;2024-03-08T08:01:59;99620.59;;;-0.99;68.67
80382;BME280;69692;55.820;37.490;2024-03-08T08:04:25;99617.66;;;-0.96;68.38
80382;BME280;69692;55.820;37.490;2024-03-08T08:06:52;99615.06;;;-0.87;68.50
80382;BME280;69692;55.820;37.490;2024-03-08T08:09:20;99618.38;;;-0.77;67.99
80382;BME280;69692;55.820;37.490;2024-03-08T08:11:54;99609.69;;;-0.70;68.28
80382;BME280;69692;55.820;37.490;2024-03-08T08:14:20;99618.44;;;-0.61;67.97
80382;BME280;69692;55.820;37.490;2024-03-08T08:16:47;99614.84;;;-0.52;67.50
80382;BME280;69692;55.820;37.490;2024-03-08T08:19:14;99601.97;;;-0.47;66.69
80382;BME280;69692;55.820;37.490;2024-03-08T08:21:41;99605.50;;;-0.38;67.26
80382;BME280;69692;55.820;37.490;2024-03-08T08:24:07;99605.19;;;-0.27;66.64
80382;BME280;69692;55.820;37.490;2024-03-08T08:26:34;99608.84;;;-0.12;66.54
80382;BME280;69692;55.820;37.490;2024-03-08T08:29:01;99607.38;;;-0.14;66.16
80382;BME280;69692;55.820;37.490;2024-03-08T08:31:27;99603.59;;;0.05;66.32
80382;BME280;69692;55.820;37.490;2024-03-08T08:33:53;99613.00;;;0.07;66.80
80382;BME280;69692;55.820;37.490;2024-03-08T08:36:24;99609.38;;;0.24;65.88
80382;BME280;69692;55.820;37.490;2024-03-08T08:38:50;99609.38;;;0.33;65.94
80382;BME280;69692;55.820;37.490;2024-03-08T08:41:16;99613.19;;;0.30;65.10
80382;BME280;69692;55.820;37.490;2024-03-08T08:43:43;99605.25;;;0.46;65.07
80382;BME280;69692;55.820;37.490;2024-03-08T08:46:12;99609.22;;;0.50;65.03
80382;BME280;69692;55.820;37.490;2024-03-08T08:48:41;99605.75;;;0.25;65.21
80382;BME280;69692;55.820;37.490;2024-03-08T08:51:09;99611.16;;;-0.01;66.42
80382;BME280;69692;55.820;37.490;2024-03-08T08:53:38;99609.84;;;-0.05;67.24
80382;BME280;69692;55.820;37.490;2024-03-08T08:56:12;99606.88;;;0.07;67.15
80382;BME280;69692;55.820;37.490;2024-03-08T08:58:42;99602.75;;;0.04;66.50
80382;BME280;69692;55.820;37.490;2024-03-08T09:01:09;99597.00;;;0.17;66.55
80382;BME280;69692;55.820;37.490;2024-03-08T09:03:37;99587.41;;;0.16;66.66
80382;BME280;69692;55.820;37.490;2024-03-08T09:06:08;99586.56;;;0.40;66.48
80382;BME280;69692;55.820;37.490;2024-03-08T09:08:37;99585.06;;;0.62;65.82
80382;BME280;69692;55.820;37.490;2024-03-08T09:11:05;99581.69;;;0.84;64.46
80382;BME280;69692;55.820;37.490;2024-03-08T09:13:32;99580.19;;;0.81;64.50
80382;BME280;69692;55.820;37.490;2024-03-08T09:16:00;99584.84;;;0.79;64.48
80382;BME280;69692;55.820;37.490;2024-03-08T09:18:26;99582.16;;;0.87;64.44
80382;BME280;69692;55.820;37.490;2024-03-08T09:20:52;99577.69;;;0.96;64.62
80382;BME280;69692;55.820;37.490;2024-03-08T09:23:19;99582.19;;;0.79;65.06
80382;BME280;69692;55.820;37.490;2024-03-08T09:25:46;99593.56;;;0.96;64.76
80382;BME280;69692;55.820;37.490;2024-03-08T09:28:12;99588.91;;;1.06;64.10
80382;BME280;69692;55.820;37.490;2024-03-08T09:30:39;99587.03;;;1.15;64.27
80382;BME280;69692;55.820;37.490;2024-03-08T09:33:05;99584.03;;;1.26;63.61
80382;BME280;69692;55.820;37.490;2024-03-08T09:35:32;99586.50;;;1.28;63.72
80382;BME280;69692;55.820;37.490;2024-03-08T09:37:58;99583.59;;;1.45;64.25
80382;BME280;69692;55.820;37.490;2024-03-08T09:40:24;99583.13;;;1.42;63.74
80382;BME280;69692;55.820;37.490;2024-03-08T09:42:51;99574.19;;;1.43;64.35
80382;BME280;69692;55.820;37.490;2024-03-08T09:45:20;99578.47;;;1.44;64.21
80382;BME280;69692;55.820;37.490;2024-03-08T09:47:50;99579.28;;;1.53;64.27
80382;BME280;69692;55.820;37.490;2024-03-08T09:50:17;99573.78;;;1.54;63.48
80382;BME280;69692;55.820;37.490;2024-03-08T09:52:47;99574.44;;;1.56;64.04
80382;BME280;69692;55.820;37.490;2024-03-08T09:55:14;99580.09;;;1.53;63.20
80382;BME280;69692;55.820;37.490;2024-03-08T09:58:05;99578.38;;;1.60;63.57
80382;BME280;69692;55.820;37.490;2024-03-08T10:01:03;99578.91;;;1.56;63.38
80382;BME280;69692;55.820;37.490;2024-03-08T10:03:30;99569.66;;;1.52;63.41
80382;BME280;69692;55.820;37.490;2024-03-08T10:06:01;99579.72;;;1.64;63.43
80382;BME280;69692;55.820;37.490;2024-03-08T10:08:29;99575.66;;;1.45;63.54
80382;BME280;69692;55.820;37.490;2024-03-08T10:10:56;99582.19;;;1.35;63.88
80382;BME280;69692;55.820;37.490;2024-03-08T10:13:44;99568.25;;;1.33;64.24
80382;BME280;69692;55.820;37.490;2024-03-08T10:16:29;99571.56;;;1.35;64.86
80382;BME280;69692;55.820;37.490;2024-03-08T10:18:56;99574.19;;;1.43;64.34
80382;BME280;69692;55.820;37.490;2024-03-08T10:21:24;99571.00;;;1.47;63.98
80382;BME280;69692;55.820;37.490;2024-03-08T10:23:51;99565.19;;;1.52;64.25
80382;BME280;69692;55.820;37.490;2024-03-08T10:26:19;99568.09;;;1.65;63.07
80382;BME280;69692;55.820;37.490;2024-03-08T10:28:49;99569.09;;;1.64;63.43
80382;BME280;69692;55.820;37.490;2024-03-08T10:31:17;99574.09;;;1.59;63.24
80382;BME280;69692;55.820;37.490;2024-03-08T10:33:48;99572.78;;;1.55;63.85
80382;BME280;69692;55.820;37.490;2024-03-08T10:36:16;99570.25;;;1.62;63.66
80382;BME280;69692;55.820;37.490;2024-03-08T10:38:45;99571.78;;;1.56;64.27
80382;BME280;69692;55.820;37.490;2024-03-08T10:41:17;99569.56;;;1.37;64.58
80382;BME280;69692;55.820;37.490;2024-03-08T10:46:42;99575.91;;;1.28;64.58
80382;BME280;69692;55.820;37.490;2024-03-08T10:49:16;99573.56;;;1.33;64.98
80382;BME280;69692;55.820;37.490;2024-03-08T10:51:44;99570.41;;;1.37;64.46
80382;BME280;69692;55.820;37.490;2024-03-08T10:54:11;99563.28;;;1.38;64.58
80382;BME280;69692;55.820;37.490;2024-03-08T10:56:39;99570.44;;;1.60;64.12
80382;BME280;69692;55.820;37.490;2024-03-08T10:59:08;99566.31;;;1.58;63.81
80382;BME280;69692;55.820;37.490;2024-03-08T11:01:35;99566.38;;;1.49;63.88
80382;BME280;69692;55.820;37.490;2024-03-08T11:04:06;99561.56;;;1.45;63.96
80382;BME280;69692;55.820;37.490;2024-03-08T11:12:28;99563.94;;;1.63;63.48
80382;BME280;69692;55.820;37.490;2024-03-08T11:14:58;99556.56;;;1.81;63.06
80382;BME280;69692;55.820;37.490;2024-03-08T11:19:55;99557.63;;;1.95;62.63
80382;BME280;69692;55.820;37.490;2024-03-08T11:22:29;99555.72;;;2.03;62.97
80382;BME280;69692;55.820;37.490;2024-03-08T11:25:01;99562.44;;;2.14;61.62
80382;BME280;69692;55.820;37.490;2024-03-08T11:27:31;99558.88;;;2.22;61.81
80382;BME280;69692;55.820;37.490;2024-03-08T11:30:03;99552.06;;;2.27;62.24
80382;BME280;69692;55.820;37.490;2024-03-08T11:32:44;99557.22;;;2.21;61.96
80382;BME280;69692;55.820;37.490;2024-03-08T11:35:21;99550.59;;;2.25;61.87
80382;BME280;69692;55.820;37.490;2024-03-08T11:37:48;99538.38;;;1.93;62.70
80382;BME280;69692;55.820;37.490;2024-03-08T11:40:15;99542.16;;;1.98;62.22
80382;BME280;69692;55.820;37.490;2024-03-08T11:42:45;99544.47;;;1.47;63.65
80382;BME280;69692;55.820;37.490;2024-03-08T11:45:15;99548.03;;;1.01;65.11
80382;BME280;69692;55.820;37.490;2024-03-08T11:47:43;99553.19;;;0.86;66.28
80382;BME280;69692;55.820;37.490;2024-03-08T11:50:14;99559.50;;;0.93;65.57
80382;BME280;69692;55.820;37.490;2024-03-08T11:52:41;99550.81;;;1.07;66.01
80382;BME280;69692;55.820;37.490;2024-03-08T11:55:08;99552.56;;;1.23;65.62
80382;BME280;69692;55.820;37.490;2024-03-08T11:57:34;99552.50;;;1.62;65.06
80382;BME280;69692;55.820;37.490;2024-03-08T12:00:02;99550.13;;;1.75;63.10
80382;BME280;69692;55.820;37.490;2024-03-08T12:02:34;99550.59;;;1.79;63.39
80382;BME280;69692;55.820;37.490;2024-03-08T12:05:04;99555.75;;;1.81;63.39
80382;BME280;69692;55.820;37.490;2024-03-08T12:07:30;99553.66;;;1.37;64.46
80382;BME280;69692;55.820;37.490;2024-03-08T12:12:45;99557.63;;;1.02;65.59
80382;BME280;69692;55.820;37.490;2024-03-08T12:15:12;99558.25;;;1.04;67.00
80382;BME280;69692;55.820;37.490;2024-03-08T12:17:39;99550.56;;;1.25;65.90
80382;BME280;69692;55.820;37.490;2024-03-08T12:20:16;99562.91;;;1.41;64.65
80382;BME280;69692;55.820;37.490;2024-03-08T12:22:44;99558.25;;;1.51;64.59
80382;BME280;69692;55.820;37.490;2024-03-08T12:25:13;99564.00;;;1.55;64.43
80382;BME280;69692;55.820;37.490;2024-03-08T12:27:41;99567.59;;;1.62;63.84
80382;BME280;69692;55.820;37.490;2024-03-08T12:30:27;99558.25;;;1.74;62.81
80382;BME280;69692;55.820;37.490;2024-03-08T12:33:00;99560.44;;;1.70;62.03
80382;BME280;69692;55.820;37.490;2024-03-08T12:35:30;99566.38;;;1.72;62.48
80382;BME280;69692;55.820;37.490;2024-03-08T12:37:58;99564.19;;;1.76;62.88
80382;BME280;69692;55.820;37.490;2024-03-08T12:40:29;99552.91;;;1.82;61.39
80382;BME280;69692;55.820;37.490;2024-03-08T12:42:58;99548.53;;;1.89;61.87
80382;BME280;69692;55.820;37.490;2024-03-08T12:45:25;99543.28;;;2.04;61.14
80382;BME280;69692;55.820;37.490;2024-03-08T12:47:51;99554.19;;;2.09;60.91
80382;BME280;69692;55.820;37.490;2024-03-08T12:50:19;99554.72;;;2.27;60.87
80382;BME280;69692;55.820;37.490;2024-03-08T12:52:46;99553.75;;;2.20;60.76
80382;BME280;69692;55.820;37.490;2024-03-08T12:55:12;99566.59;;;2.31;61.08
80382;BME280;69692;55.820;37.490;2024-03-08T12:57:38;99563.94;;;2.31;59.60
80382;BME280;69692;55.820;37.490;2024-03-08T13:00:05;99573.00;;;2.37;60.38
80382;BME280;69692;55.820;37.490;2024-03-08T13:02:31;99568.25;;;2.32;59.70
80382;BME280;69692;55.820;37.490;2024-03-08T13:04:58;99577.63;;;2.20;60.94
80382;BME280;69692;55.820;37.490;2024-03-08T13:07:24;99565.97;;;2.29;60.25
80382;BME280;69692;55.820;37.490;2024-03-08T13:09:54;99564.50;;;2.27;59.75
80382;BME280;69692;55.820;37.490;2024-03-08T13:12:21;99567.75;;;2.14;60.31
80382;BME280;69692;55.820;37.490;2024-03-08T13:14:47;99567.75;;;2.14;60.69